createdAt,value
2018-07-23T00:00:01.387Z,18.5
2018-07-23T00:10:01.327Z,18.3
2018-07-23T00:15:01.246Z,18.2
2018-07-23T00:20:01.388Z,18.0
2018-07-23T00:25:01.290Z,17.9
2018-07-23T00:30:01.342Z,17.7
2018-07-23T00:35:01.290Z,17.5
2018-07-23T00:40:01.410Z,17.3
2018-07-23T00:45:01.268Z,17.2
2018-07-23T00:50:01.313Z,17.0
2018-07-23T01:00:01.376Z,16.8
2018-07-23T01:05:01.256Z,16.7
2018-07-23T01:10:01.380Z,16.6
2018-07-23T01:15:01.287Z,16.5
2018-07-23T01:20:01.315Z,16.4
2018-07-23T01:30:01.303Z,16.3
2018-07-23T01:35:01.243Z,16.2
2018-07-23T01:45:01.271Z,16.1
2018-07-23T01:50:01.349Z,16.0
2018-07-23T02:00:01.361Z,15.9
2018-07-23T02:05:01.394Z,15.8
2018-07-23T02:10:01.209Z,15.7
2018-07-23T02:15:01.401Z,15.7
2018-07-23T02:20:01.354Z,15.6
2018-07-23T02:25:01.448Z,15.5
2018-07-23T02:30:01.432Z,15.5
2018-07-23T02:40:01.218Z,15.4
2018-07-23T02:45:01.327Z,15.4
2018-07-23T03:00:01.390Z,15.4
2018-07-23T03:05:01.361Z,15.3
2018-07-23T03:10:01.385Z,15.2
2018-07-23T03:15:01.333Z,15.1
2018-07-23T03:20:01.396Z,15.0
2018-07-23T03:25:01.219Z,14.9
2018-07-23T03:30:01.398Z,14.8
2018-07-23T03:45:01.318Z,14.9
2018-07-23T03:55:01.515Z,15.0
2018-07-23T04:00:01.462Z,15.0
2018-07-23T04:05:01.389Z,15.1
2018-07-23T04:10:01.589Z,15.2
2018-07-23T04:15:01.394Z,15.2
2018-07-23T04:20:01.406Z,15.4
2018-07-23T04:31:01.375Z,15.6
2018-07-23T04:36:01.392Z,15.7
2018-07-23T04:41:01.427Z,15.9
2018-07-23T04:46:01.414Z,16.0
2018-07-23T04:51:01.327Z,16.2
2018-07-23T04:56:01.369Z,16.3
2018-07-23T05:01:01.395Z,16.6
2018-07-23T05:06:01.407Z,16.7
2018-07-23T05:11:01.406Z,17.0
2018-07-23T05:16:01.598Z,17.2
2018-07-23T05:21:01.394Z,17.4
2018-07-23T05:26:01.412Z,17.6
2018-07-23T05:31:01.423Z,17.9
2018-07-23T05:36:01.362Z,18.1
2018-07-23T05:41:01.368Z,18.3
2018-07-23T05:46:01.385Z,18.5
2018-07-23T05:51:01.261Z,18.7
2018-07-23T05:56:01.395Z,18.9
2018-07-23T06:01:01.263Z,19.1
2018-07-23T06:06:01.236Z,19.2
2018-07-23T06:11:01.417Z,19.5
2018-07-23T06:16:01.526Z,19.7
2018-07-23T06:21:01.463Z,19.9
2018-07-23T06:26:01.262Z,20.1
2018-07-23T06:31:01.277Z,20.4
2018-07-23T06:36:01.267Z,20.5
2018-07-23T06:41:01.357Z,20.7
2018-07-23T06:46:01.272Z,20.9
2018-07-23T06:51:01.595Z,21.1
2018-07-23T06:56:01.526Z,21.3
2018-07-23T07:01:01.256Z,21.5
2018-07-23T07:06:01.246Z,21.6
2018-07-23T07:11:01.481Z,21.7
2018-07-23T07:16:01.260Z,21.8
2018-07-23T07:21:01.294Z,21.9
2018-07-23T07:26:01.264Z,22.1
2018-07-23T07:31:01.260Z,22.2
2018-07-23T07:36:01.587Z,22.3
2018-07-23T07:51:01.592Z,22.6
2018-07-23T07:56:01.516Z,22.8
2018-07-23T08:01:01.258Z,23.0
2018-07-23T08:06:01.510Z,23.2
2018-07-23T08:11:01.356Z,23.4
2018-07-23T08:21:01.318Z,23.3
2018-07-23T08:36:01.279Z,23.3
2018-07-23T08:41:01.542Z,23.4
2018-07-23T08:46:01.271Z,23.5
2018-07-23T08:51:01.385Z,23.6
2018-07-23T08:56:01.477Z,23.7
2018-07-23T09:01:01.211Z,23.9
2018-07-23T09:11:01.315Z,24.1
2018-07-23T09:16:01.263Z,24.3
2018-07-23T09:21:01.283Z,24.4
2018-07-23T09:36:01.321Z,24.3
2018-07-23T09:46:01.090Z,24.5
2018-07-23T09:51:01.319Z,24.6
2018-07-23T09:56:01.261Z,24.7
2018-07-23T10:01:01.250Z,24.8
2018-07-23T10:06:01.248Z,24.7
2018-07-23T10:21:01.395Z,24.6
2018-07-23T10:31:01.147Z,24.5
2018-07-23T10:46:01.088Z,24.6
2018-07-23T11:01:01.123Z,24.7
2018-07-23T11:06:01.247Z,24.8
2018-07-23T11:11:01.384Z,24.9
2018-07-23T11:16:01.249Z,25.2
2018-07-23T11:21:01.326Z,25.5
2018-07-23T11:26:01.259Z,25.7
2018-07-23T11:31:01.260Z,25.9
2018-07-23T11:36:01.224Z,25.8
2018-07-23T11:41:01.325Z,25.9
2018-07-23T11:46:01.507Z,25.8
2018-07-23T11:56:01.356Z,26.0
2018-07-23T12:01:01.265Z,26.3
2018-07-23T12:07:01.305Z,26.5
2018-07-23T12:12:01.287Z,26.8
2018-07-23T12:17:01.241Z,26.9
2018-07-23T12:22:01.323Z,27.1
2018-07-23T12:27:01.254Z,27.3
2018-07-23T12:32:01.256Z,27.5
2018-07-23T12:37:01.254Z,27.6
2018-07-23T12:42:01.362Z,27.7
2018-07-23T12:47:01.308Z,27.6
2018-07-23T12:52:01.329Z,27.7
2018-07-23T12:57:01.226Z,27.8
2018-07-23T13:02:01.253Z,28.0
2018-07-23T13:07:01.243Z,28.3
2018-07-23T13:12:01.317Z,28.6
2018-07-23T13:22:01.327Z,28.7
2018-07-23T13:32:01.117Z,28.8
2018-07-23T13:37:01.251Z,28.9
2018-07-23T13:42:01.358Z,29.1
2018-07-23T13:53:01.355Z,29.2
2018-07-23T14:08:01.383Z,29.2
2018-07-23T14:13:01.358Z,29.0
2018-07-23T14:18:01.251Z,28.8
2018-07-23T14:28:01.324Z,28.7
2018-07-23T14:33:01.263Z,28.8
2018-07-23T14:38:01.287Z,29.1
2018-07-23T14:43:01.359Z,29.5
2018-07-23T14:48:01.236Z,29.6
2018-07-23T14:53:01.399Z,29.5
2018-07-23T14:58:01.244Z,29.2
2018-07-23T15:03:01.250Z,28.8
2018-07-23T15:08:01.252Z,28.5
2018-07-23T15:13:01.321Z,28.3
2018-07-23T15:18:01.256Z,28.5
2018-07-23T15:23:01.322Z,28.7
2018-07-23T15:28:01.258Z,29.0
2018-07-23T15:33:01.497Z,29.2
2018-07-23T15:38:01.257Z,29.1
2018-07-23T15:48:06.124Z,29.0
2018-07-23T15:53:01.443Z,28.9
2018-07-23T16:08:01.238Z,28.9
2018-07-23T16:18:01.084Z,28.8
2018-07-23T16:23:01.410Z,28.4
2018-07-23T16:28:01.262Z,28.1
2018-07-23T16:33:01.434Z,27.7
2018-07-23T16:38:01.431Z,27.4
2018-07-23T16:43:01.406Z,27.1
2018-07-23T16:48:01.373Z,26.9
2018-07-23T16:53:01.356Z,26.7
2018-07-23T16:58:01.466Z,26.6
2018-07-23T17:03:01.390Z,26.4
2018-07-23T17:09:01.356Z,26.3
2018-07-23T17:14:01.462Z,26.1
2018-07-23T17:19:01.817Z,26.0
2018-07-23T17:24:01.399Z,25.9
2018-07-23T17:39:01.422Z,25.9
2018-07-23T17:44:01.461Z,25.8
2018-07-23T17:59:01.527Z,25.7
2018-07-23T18:04:01.223Z,25.6
2018-07-23T18:09:01.501Z,25.5
2018-07-23T18:19:01.394Z,25.3
2018-07-23T18:29:01.453Z,25.1
2018-07-23T18:39:01.363Z,24.9
2018-07-23T18:44:01.337Z,24.8
2018-07-23T18:49:01.323Z,24.7
2018-07-23T18:54:01.314Z,24.6
2018-07-23T18:59:01.357Z,24.5
2018-07-23T19:04:01.373Z,24.4
2018-07-23T19:09:01.406Z,24.3
2018-07-23T19:14:01.469Z,24.2
2018-07-23T19:19:01.393Z,24.1
2018-07-23T19:24:01.320Z,24.0
2018-07-23T19:29:01.370Z,23.9
2018-07-23T19:34:01.404Z,23.8
2018-07-23T19:39:01.427Z,23.6
2018-07-23T19:44:01.356Z,23.5
2018-07-23T19:49:01.373Z,23.2
2018-07-23T19:54:01.363Z,23.0
2018-07-23T19:59:01.260Z,22.7
2018-07-23T20:04:01.411Z,22.6
2018-07-23T20:09:01.528Z,22.3
2018-07-23T20:14:01.391Z,22.2
2018-07-23T20:19:01.368Z,22.0
2018-07-23T20:24:01.356Z,21.8
2018-07-23T20:29:01.361Z,21.6
2018-07-23T20:34:01.357Z,21.5
2018-07-23T20:39:01.565Z,21.3
2018-07-23T20:44:01.375Z,21.2
2018-07-23T20:49:01.402Z,21.0
2018-07-23T20:54:01.443Z,20.9
2018-07-23T20:59:01.359Z,20.8
2018-07-23T21:04:01.357Z,20.7
2018-07-23T21:09:01.472Z,20.6
2018-07-23T21:14:01.252Z,20.5
2018-07-23T21:19:01.313Z,20.4
2018-07-23T21:24:01.252Z,20.3
2018-07-23T21:29:01.377Z,20.2
2018-07-23T21:34:01.259Z,20.1
2018-07-23T21:39:01.313Z,20.0
2018-07-23T21:44:01.220Z,19.9
2018-07-23T21:49:01.286Z,19.8
2018-07-23T21:59:01.303Z,19.7
2018-07-23T22:04:01.221Z,19.6
2018-07-23T22:14:01.284Z,19.5
2018-07-23T22:19:01.339Z,19.4
2018-07-23T22:34:01.286Z,19.3
2018-07-23T22:44:01.324Z,19.2
2018-07-23T22:49:01.373Z,19.1
2018-07-23T22:54:01.249Z,19.0
2018-07-23T22:59:01.375Z,18.9
2018-07-23T23:04:01.226Z,18.8
2018-07-23T23:09:01.311Z,18.7
2018-07-23T23:14:01.250Z,18.6
2018-07-23T23:19:01.410Z,18.5
2018-07-23T23:24:01.222Z,18.4
2018-07-23T23:29:01.335Z,18.3
2018-07-23T23:39:01.280Z,18.2
2018-07-23T23:49:01.322Z,18.1
2018-07-23T23:59:01.421Z,17.9
